createdAt,value
2019-02-04T00:00:39.769Z,73.60
2019-02-04T00:03:11.488Z,73.70
2019-02-04T00:05:39.900Z,73.70
2019-02-04T00:08:08.683Z,73.80
2019-02-04T00:10:37.329Z,73.80
2019-02-04T00:13:06.471Z,73.90
2019-02-04T00:15:35.077Z,74.00
2019-02-04T00:18:04.881Z,74.00
2019-02-04T00:20:33.277Z,74.20
2019-02-04T00:23:02.098Z,74.20
2019-02-04T00:25:30.512Z,74.20
2019-02-04T00:27:58.919Z,73.90
2019-02-04T00:30:28.083Z,74.30
2019-02-04T00:32:56.505Z,74.40
2019-02-04T00:35:24.960Z,74.60
2019-02-04T00:37:53.583Z,74.50
2019-02-04T00:40:25.345Z,74.60
2019-02-04T00:42:54.039Z,74.40
2019-02-04T00:45:22.566Z,74.60
2019-02-04T00:47:51.208Z,74.70
2019-02-04T00:50:20.849Z,74.70
2019-02-04T00:52:49.597Z,74.70
2019-02-04T00:55:18.092Z,74.60
2019-02-04T00:57:46.755Z,74.90
2019-02-04T01:00:31.689Z,75.00
2019-02-04T01:03:00.166Z,75.10
2019-02-04T01:05:29.032Z,75.20
2019-02-04T01:07:57.571Z,75.20
2019-02-04T01:10:28.433Z,75.10
2019-02-04T01:12:57.990Z,75.00
2019-02-04T01:15:27.125Z,74.70
2019-02-04T01:17:55.852Z,74.60
2019-02-04T01:20:27.298Z,74.80
2019-02-04T01:22:56.017Z,74.70
2019-02-04T01:25:24.658Z,74.50
2019-02-04T01:27:53.132Z,74.50
2019-02-04T01:30:22.726Z,74.70
2019-02-04T01:32:51.193Z,75.00
2019-02-04T01:35:20.329Z,75.30
2019-02-04T01:37:48.883Z,75.30
2019-02-04T01:40:26.025Z,75.50
2019-02-04T01:42:55.283Z,75.80
2019-02-04T01:45:24.445Z,75.80
2019-02-04T01:47:52.900Z,76.00
2019-02-04T01:50:23.037Z,76.00
2019-02-04T01:52:51.715Z,75.80
2019-02-04T01:55:20.190Z,75.50
2019-02-04T01:57:51.297Z,75.40
2019-02-04T02:00:22.771Z,75.40
2019-02-04T02:02:51.188Z,75.30
2019-02-04T02:05:20.010Z,75.20
2019-02-04T02:07:48.399Z,75.30
2019-02-04T02:10:19.246Z,75.30
2019-02-04T02:12:47.849Z,75.10
2019-02-04T02:15:16.323Z,75.10
2019-02-04T02:17:44.773Z,75.10
2019-02-04T02:20:19.419Z,75.10
2019-02-04T02:22:47.876Z,75.10
2019-02-04T02:25:16.426Z,75.00
2019-02-04T02:27:45.120Z,75.20
2019-02-04T02:30:19.347Z,75.10
2019-02-04T02:32:47.974Z,75.20
2019-02-04T02:35:16.429Z,75.10
2019-02-04T02:37:45.646Z,74.90
2019-02-04T02:40:17.362Z,75.00
2019-02-04T02:42:47.140Z,75.00
2019-02-04T02:45:15.912Z,75.00
2019-02-04T02:47:44.539Z,75.10
2019-02-04T02:50:14.968Z,75.10
2019-02-04T02:52:43.601Z,75.00
2019-02-04T02:55:14.974Z,75.30
2019-02-04T02:57:43.495Z,75.30
2019-02-04T03:00:23.998Z,75.50
2019-02-04T03:02:52.666Z,75.50
2019-02-04T03:05:22.053Z,75.80
2019-02-04T03:07:51.426Z,76.00
2019-02-04T03:10:22.963Z,76.00
2019-02-04T03:12:51.729Z,75.90
2019-02-04T03:15:20.642Z,75.80
2019-02-04T03:17:52.318Z,76.20
2019-02-04T03:20:20.017Z,76.30
2019-02-04T03:22:48.716Z,76.20
2019-02-04T03:25:17.470Z,76.30
2019-02-04T03:27:46.124Z,76.10
2019-02-04T03:30:17.811Z,76.10
2019-02-04T03:32:46.260Z,76.20
2019-02-04T03:35:14.965Z,76.00
2019-02-04T03:37:43.371Z,75.70
2019-02-04T03:40:20.668Z,75.80
2019-02-04T03:42:49.384Z,75.70
2019-02-04T03:45:18.236Z,75.70
2019-02-04T03:47:46.890Z,75.50
2019-02-04T03:50:15.674Z,75.60
2019-02-04T03:52:44.333Z,75.90
2019-02-04T03:55:17.124Z,75.70
2019-02-04T03:57:45.929Z,75.60
2019-02-04T04:00:20.684Z,75.40
2019-02-04T04:02:49.282Z,75.40
2019-02-04T04:05:18.324Z,75.30
2019-02-04T04:07:46.919Z,75.70
2019-02-04T04:10:16.183Z,75.60
2019-02-04T04:12:44.661Z,75.30
2019-02-04T04:15:14.984Z,75.30
2019-02-04T04:17:43.409Z,75.20
2019-02-04T04:20:14.757Z,75.20
2019-02-04T04:22:43.277Z,75.30
2019-02-04T04:25:13.824Z,75.40
2019-02-04T04:27:42.306Z,75.10
2019-02-04T04:30:25.114Z,75.40
2019-02-04T04:32:53.878Z,75.60
2019-02-04T04:35:22.414Z,75.80
2019-02-04T04:37:51.174Z,75.80
2019-02-04T04:40:19.642Z,75.70
2019-02-04T04:42:48.421Z,76.00
2019-02-04T04:45:18.676Z,76.10
2019-02-04T04:47:47.510Z,76.30
2019-02-04T04:50:16.578Z,76.20
2019-02-04T04:52:45.235Z,76.00
2019-02-04T04:55:19.444Z,76.00
2019-02-04T04:57:48.539Z,76.00
2019-02-04T05:00:19.634Z,75.90
2019-02-04T05:02:48.392Z,76.10
2019-02-04T05:05:16.821Z,76.10
2019-02-04T05:07:45.486Z,76.20
2019-02-04T05:10:16.610Z,76.10
2019-02-04T05:12:45.360Z,76.00
2019-02-04T05:15:19.020Z,76.00
2019-02-04T05:17:47.484Z,76.10
2019-02-04T05:20:18.125Z,76.30
2019-02-04T05:22:46.674Z,76.70
2019-02-04T05:25:15.821Z,76.30
2019-02-04T05:27:44.485Z,76.10
2019-02-04T05:30:18.577Z,75.90
2019-02-04T05:32:47.218Z,76.10
2019-02-04T05:35:15.800Z,76.20
2019-02-04T05:37:44.496Z,76.20
2019-02-04T05:40:16.979Z,76.00
2019-02-04T05:42:46.637Z,76.20
2019-02-04T05:45:17.336Z,76.20
2019-02-04T05:47:46.721Z,76.40
2019-02-04T05:50:19.766Z,76.50
2019-02-04T05:52:49.132Z,76.70
2019-02-04T05:55:18.873Z,76.50
2019-02-04T05:57:47.322Z,76.20
2019-02-04T06:00:23.623Z,76.10
2019-02-04T06:02:52.385Z,76.00
2019-02-04T06:05:22.505Z,75.90
2019-02-04T06:07:51.232Z,76.20
2019-02-04T06:10:19.885Z,76.50
2019-02-04T06:12:48.612Z,76.40
2019-02-04T06:15:17.764Z,76.20
2019-02-04T06:17:46.206Z,76.10
2019-02-04T06:20:20.566Z,76.10
2019-02-04T06:22:49.223Z,76.30
2019-02-04T06:25:17.647Z,76.30
2019-02-04T06:27:46.181Z,76.30
2019-02-04T06:30:16.386Z,76.40
2019-02-04T06:32:44.935Z,76.20
2019-02-04T06:35:15.409Z,76.50
2019-02-04T06:37:46.661Z,76.90
2019-02-04T06:40:17.032Z,77.00
2019-02-04T06:42:45.740Z,76.70
2019-02-04T06:45:18.361Z,76.60
2019-02-04T06:47:48.029Z,76.40
2019-02-04T06:50:20.278Z,76.40
2019-02-04T06:52:49.115Z,76.60
2019-02-04T06:55:23.303Z,76.70
2019-02-04T06:57:52.265Z,76.80
2019-02-04T07:00:20.982Z,76.80
2019-02-04T07:02:49.724Z,76.60
2019-02-04T07:05:18.735Z,76.80
2019-02-04T07:07:47.142Z,76.80
2019-02-04T07:10:21.389Z,76.60
2019-02-04T07:12:49.861Z,76.50
2019-02-04T07:15:18.492Z,76.50
2019-02-04T07:17:47.091Z,76.80
2019-02-04T07:20:20.986Z,76.90
2019-02-04T07:22:49.394Z,76.90
2019-02-04T07:25:18.389Z,77.10
2019-02-04T07:27:46.767Z,77.40
2019-02-04T07:30:23.599Z,77.30
2019-02-04T07:32:52.625Z,77.30
2019-02-04T07:35:21.628Z,77.30
2019-02-04T07:37:50.373Z,77.00
2019-02-04T07:40:22.099Z,77.00
2019-02-04T07:42:51.659Z,77.30
2019-02-04T07:45:20.345Z,77.20
2019-02-04T07:47:49.449Z,77.00
2019-02-04T07:50:18.079Z,77.00
2019-02-04T07:52:46.579Z,77.10
2019-02-04T07:55:15.648Z,77.20
2019-02-04T07:57:44.364Z,77.30
2019-02-04T08:00:24.175Z,77.40
2019-02-04T08:02:52.894Z,77.50
2019-02-04T08:05:21.892Z,77.60
2019-02-04T08:07:50.376Z,77.60
2019-02-04T08:10:18.843Z,77.40
2019-02-04T08:12:47.464Z,77.40
2019-02-04T08:15:27.243Z,77.60
2019-02-04T08:17:56.715Z,77.60
2019-02-04T08:20:27.098Z,77.40
2019-02-04T08:22:55.525Z,77.20
2019-02-04T08:25:25.965Z,77.20
2019-02-04T08:27:54.340Z,77.10
2019-02-04T08:30:28.748Z,77.10
2019-02-04T08:32:57.783Z,76.90
2019-02-04T08:35:26.648Z,76.90
2019-02-04T08:37:57.290Z,76.80
2019-02-04T08:40:25.978Z,76.80
2019-02-04T08:42:54.986Z,76.80
2019-02-04T08:45:23.885Z,76.80
2019-02-04T08:47:52.611Z,76.80
2019-02-04T08:50:23.510Z,76.60
2019-02-04T08:52:52.207Z,76.30
2019-02-04T08:55:21.121Z,76.30
2019-02-04T08:57:49.917Z,76.40
2019-02-04T09:00:26.173Z,76.20
2019-02-04T09:02:54.700Z,76.20
2019-02-04T09:05:24.277Z,76.00
2019-02-04T09:07:52.961Z,76.00
2019-02-04T09:10:24.906Z,76.00
2019-02-04T09:12:53.988Z,75.90
2019-02-04T09:15:22.533Z,75.90
2019-02-04T09:17:51.454Z,76.00
2019-02-04T09:20:20.291Z,76.10
2019-02-04T09:22:49.031Z,75.80
2019-02-04T09:25:19.839Z,75.50
2019-02-04T09:27:48.681Z,75.30
2019-02-04T09:30:22.793Z,75.40
2019-02-04T09:32:52.048Z,75.30
2019-02-04T09:35:21.931Z,75.00
2019-02-04T09:37:50.737Z,74.80
2019-02-04T09:40:28.361Z,74.60
2019-02-04T09:42:57.100Z,74.10
2019-02-04T09:45:27.757Z,74.00
2019-02-04T09:47:56.056Z,73.90
2019-02-04T09:50:27.577Z,73.70
2019-02-04T09:52:56.044Z,73.40
2019-02-04T09:55:30.369Z,73.20
2019-02-04T09:57:59.739Z,72.90
2019-02-04T10:00:30.969Z,72.60
2019-02-04T10:03:00.851Z,72.70
2019-02-04T10:05:29.607Z,72.40
2019-02-04T10:07:59.055Z,72.10
2019-02-04T10:10:29.402Z,71.70
2019-02-04T10:12:59.569Z,71.10
2019-02-04T10:15:30.700Z,70.90
2019-02-04T10:17:59.372Z,70.40
2019-02-04T10:20:34.137Z,69.60
2019-02-04T10:22:58.703Z,69.40
2019-02-04T10:25:30.594Z,69.10
2019-02-04T10:28:00.267Z,68.90
2019-02-04T10:30:29.047Z,68.80
2019-02-04T10:32:57.805Z,68.70
2019-02-04T10:35:26.338Z,68.00
2019-02-04T10:37:54.846Z,67.80
2019-02-04T10:40:26.010Z,67.90
2019-02-04T10:42:54.663Z,67.70
2019-02-04T10:45:23.291Z,67.50
2019-02-04T10:47:52.093Z,67.50
2019-02-04T10:50:26.031Z,67.60
2019-02-04T10:52:54.537Z,67.70
2019-02-04T10:55:22.948Z,67.40
2019-02-04T10:57:51.388Z,67.30
2019-02-04T11:00:25.478Z,67.10
2019-02-04T11:02:54.144Z,66.90
2019-02-04T11:05:26.165Z,66.80
2019-02-04T11:07:54.854Z,66.80
2019-02-04T11:10:26.250Z,67.00
2019-02-04T11:12:54.846Z,67.00
2019-02-04T11:15:25.565Z,67.00
2019-02-04T11:17:53.834Z,67.00
2019-02-04T11:20:29.466Z,66.90
2019-02-04T11:22:58.131Z,66.30
2019-02-04T11:25:26.695Z,66.00
2019-02-04T11:27:55.378Z,66.40
2019-02-04T11:30:31.811Z,66.60
2019-02-04T11:33:00.426Z,66.30
2019-02-04T11:35:29.075Z,66.10
2019-02-04T11:37:57.881Z,65.80
2019-02-04T11:40:29.645Z,66.00
2019-02-04T11:42:58.104Z,66.20
2019-02-04T11:45:28.160Z,66.10
2019-02-04T11:47:56.889Z,66.30
2019-02-04T11:50:26.022Z,66.60
2019-02-04T11:52:54.764Z,66.10
2019-02-04T11:55:23.202Z,65.80
2019-02-04T11:57:51.667Z,65.80
2019-02-04T12:00:23.089Z,65.70
2019-02-04T12:02:53.729Z,65.40
2019-02-04T12:05:23.550Z,65.30
2019-02-04T12:07:52.736Z,65.60
2019-02-04T12:10:39.059Z,65.90
2019-02-04T12:13:08.618Z,66.10
2019-02-04T12:15:37.146Z,66.20
2019-02-04T12:18:06.167Z,66.00
2019-02-04T12:20:34.798Z,65.40
2019-02-04T12:23:03.361Z,65.10
2019-02-04T12:25:32.035Z,64.70
2019-02-04T12:28:00.427Z,64.80
2019-02-04T12:30:34.440Z,64.70
2019-02-04T12:33:04.720Z,64.50
2019-02-04T12:35:33.356Z,64.50
2019-02-04T12:38:01.793Z,64.30
2019-02-04T12:40:30.573Z,64.30
2019-02-04T12:42:59.552Z,64.30
2019-02-04T12:45:34.764Z,63.90
2019-02-04T12:48:04.294Z,63.80
2019-02-04T12:50:32.859Z,63.60
2019-02-04T12:53:01.376Z,63.20
2019-02-04T12:55:31.607Z,62.90
2019-02-04T12:58:00.063Z,62.90
2019-02-04T13:00:32.498Z,62.60
2019-02-04T13:03:01.384Z,62.50
2019-02-04T13:05:32.322Z,62.70
2019-02-04T13:08:01.126Z,61.90
2019-02-04T13:10:29.753Z,61.80
2019-02-04T13:12:58.461Z,62.00
2019-02-04T13:15:27.292Z,61.50
2019-02-04T13:17:56.011Z,61.10
2019-02-04T13:20:24.879Z,60.80
2019-02-04T13:22:53.399Z,60.50
2019-02-04T13:25:27.438Z,60.70
2019-02-04T13:27:56.135Z,60.40
2019-02-04T13:30:26.936Z,60.30
2019-02-04T13:32:55.579Z,59.60
2019-02-04T13:35:24.455Z,59.00
2019-02-04T13:37:53.750Z,58.80
2019-02-04T13:40:27.476Z,59.00
2019-02-04T13:42:56.631Z,58.10
2019-02-04T13:45:25.384Z,57.60
2019-02-04T13:47:54.449Z,57.90
2019-02-04T13:50:23.783Z,58.20
2019-02-04T13:52:53.065Z,56.90
2019-02-04T13:55:29.725Z,56.80
2019-02-04T13:57:58.157Z,55.60
2019-02-04T14:00:27.637Z,55.60
2019-02-04T14:02:59.310Z,55.10
2019-02-04T14:05:31.199Z,55.30
2019-02-04T14:07:58.373Z,55.30
2019-02-04T14:10:30.582Z,55.40
2019-02-04T14:12:59.323Z,55.10
2019-02-04T14:15:28.258Z,55.70
2019-02-04T14:17:57.305Z,55.50
2019-02-04T14:20:27.102Z,55.10
2019-02-04T14:22:55.750Z,55.20
2019-02-04T14:25:24.443Z,55.20
2019-02-04T14:27:52.888Z,54.70
2019-02-04T14:30:24.013Z,55.10
2019-02-04T14:32:52.821Z,55.40
2019-02-04T14:35:21.555Z,55.30
2019-02-04T14:37:50.416Z,55.00
2019-02-04T14:40:19.156Z,55.00
2019-02-04T14:42:51.127Z,55.10
2019-02-04T14:45:31.399Z,55.00
2019-02-04T14:48:22.529Z,55.30
2019-02-04T14:50:59.633Z,54.80
2019-02-04T14:53:31.392Z,55.00
2019-02-04T14:56:11.644Z,55.60
2019-02-04T14:58:49.008Z,55.90
2019-02-04T15:01:36.995Z,56.10
2019-02-04T15:04:17.303Z,56.20
2019-02-04T15:06:54.544Z,56.30
2019-02-04T15:09:43.069Z,56.40
2019-02-04T15:12:18.518Z,56.60
2019-02-04T15:14:52.944Z,56.20
2019-02-04T15:17:23.489Z,56.50
2019-02-04T15:19:58.182Z,56.80
2019-02-04T15:22:38.099Z,56.90
2019-02-04T15:25:35.195Z,57.20
2019-02-04T15:28:21.726Z,57.40
2019-02-04T15:30:53.259Z,57.40
2019-02-04T15:33:27.996Z,57.60
2019-02-04T15:36:05.462Z,57.70
2019-02-04T15:38:36.945Z,58.00
2019-02-04T15:41:11.346Z,58.40
2019-02-04T15:44:18.036Z,58.60
2019-02-04T15:46:55.281Z,58.50
2019-02-04T15:49:32.497Z,58.80
2019-02-04T15:52:01.405Z,58.90
2019-02-04T15:54:30.657Z,59.20
2019-02-04T15:56:59.062Z,59.20
2019-02-04T15:59:27.578Z,59.60
2019-02-04T16:01:56.492Z,59.90
2019-02-04T16:04:30.028Z,60.20
2019-02-04T16:06:58.767Z,60.50
2019-02-04T16:09:28.330Z,60.50
2019-02-04T16:11:56.975Z,60.80
2019-02-04T16:14:26.114Z,61.10
2019-02-04T16:16:55.290Z,61.30
2019-02-04T16:19:24.108Z,61.40
2019-02-04T16:21:52.795Z,61.60
2019-02-04T16:24:21.186Z,61.80
2019-02-04T16:26:49.822Z,61.80
2019-02-04T16:29:18.491Z,62.10
2019-02-04T16:31:47.145Z,62.20
2019-02-04T16:34:15.553Z,62.30
2019-02-04T16:36:44.573Z,62.40
2019-02-04T16:39:13.286Z,62.30
2019-02-04T16:41:42.363Z,62.20
2019-02-04T16:44:11.424Z,62.00
2019-02-04T16:46:40.191Z,62.10
2019-02-04T16:49:08.670Z,62.10
2019-02-04T16:51:37.329Z,62.10
2019-02-04T16:54:05.732Z,61.60
2019-02-04T16:56:34.139Z,61.40
2019-02-04T16:59:03.078Z,61.50
2019-02-04T17:01:31.807Z,61.50
2019-02-04T17:04:00.207Z,61.40
2019-02-04T17:06:28.909Z,61.80
2019-02-04T17:08:57.326Z,61.70
2019-02-04T17:11:25.736Z,61.70
2019-02-04T17:13:54.400Z,61.80
2019-02-04T17:16:23.344Z,61.70
2019-02-04T17:18:52.143Z,62.00
2019-02-04T17:21:20.825Z,61.90
2019-02-04T17:23:49.531Z,62.00
2019-02-04T17:26:18.025Z,62.50
2019-02-04T17:28:46.751Z,62.70
2019-02-04T17:31:15.163Z,62.80
2019-02-04T17:33:43.642Z,62.90
2019-02-04T17:36:12.293Z,62.80
2019-02-04T17:38:40.953Z,63.10
2019-02-04T17:41:09.612Z,63.20
2019-02-04T17:43:38.089Z,63.50
2019-02-04T17:46:06.766Z,63.50
2019-02-04T17:48:35.203Z,63.60
2019-02-04T17:51:04.873Z,63.70
2019-02-04T17:53:34.527Z,63.60
2019-02-04T17:56:04.042Z,63.90
2019-02-04T17:58:32.478Z,64.40
2019-02-04T18:01:01.277Z,64.20
2019-02-04T18:03:29.906Z,64.20
2019-02-04T18:05:58.802Z,64.30
2019-02-04T18:08:27.266Z,64.60
2019-02-04T18:10:55.697Z,64.70
2019-02-04T18:13:24.127Z,64.90
2019-02-04T18:15:52.610Z,65.10
2019-02-04T18:18:21.775Z,65.20
2019-02-04T18:20:50.569Z,65.60
2019-02-04T18:23:18.960Z,65.70
2019-02-04T18:25:47.453Z,65.90
2019-02-04T18:28:15.905Z,66.10
2019-02-04T18:30:44.317Z,66.10
2019-02-04T18:33:12.725Z,66.40
2019-02-04T18:35:41.783Z,66.60
2019-02-04T18:38:10.561Z,66.60
2019-02-04T18:40:38.962Z,66.60
2019-02-04T18:43:08.370Z,66.80
2019-02-04T18:45:36.858Z,66.80
2019-02-04T18:48:06.489Z,67.10
2019-02-04T18:50:35.782Z,67.30
2019-02-04T18:53:04.749Z,67.60
2019-02-04T18:55:34.962Z,67.60
2019-02-04T18:58:03.536Z,67.70
2019-02-04T19:00:33.679Z,67.90
2019-02-04T19:03:04.035Z,67.80
2019-02-04T19:05:32.713Z,68.10
2019-02-04T19:08:01.442Z,68.30
2019-02-04T19:10:30.675Z,68.40
2019-02-04T19:12:59.332Z,68.40
2019-02-04T19:15:29.226Z,68.70
2019-02-04T19:18:03.287Z,68.90
2019-02-04T19:20:32.661Z,68.90
2019-02-04T19:23:01.157Z,68.90
2019-02-04T19:25:29.597Z,69.20
2019-02-04T19:27:58.382Z,69.40
2019-02-04T19:30:38.690Z,69.40
2019-02-04T19:33:07.145Z,69.40
2019-02-04T19:35:35.885Z,69.60
2019-02-04T19:38:04.750Z,69.50
2019-02-04T19:40:33.596Z,69.60
2019-02-04T19:43:02.350Z,69.70
2019-02-04T19:45:31.495Z,69.80
2019-02-04T19:48:03.071Z,69.90
2019-02-04T19:50:35.081Z,69.90
2019-02-04T19:53:03.833Z,69.80
2019-02-04T19:55:32.414Z,69.90
2019-02-04T19:58:00.828Z,69.80
2019-02-04T20:00:29.998Z,69.90
2019-02-04T20:02:58.420Z,70.00
2019-02-04T20:05:31.189Z,70.00
2019-02-04T20:07:59.703Z,70.10
2019-02-04T20:10:33.890Z,70.00
2019-02-04T20:13:03.040Z,70.00
2019-02-04T20:15:32.859Z,69.90
2019-02-04T20:18:01.858Z,70.10
2019-02-04T20:20:30.876Z,70.20
2019-02-04T20:22:59.817Z,70.30
2019-02-04T20:25:34.915Z,70.50
2019-02-04T20:28:06.284Z,70.50
2019-02-04T20:30:45.464Z,70.60
2019-02-04T20:33:10.426Z,70.50
2019-02-04T20:35:38.374Z,70.70
2019-02-04T20:38:07.659Z,71.10
2019-02-04T20:40:36.261Z,71.20
2019-02-04T20:43:06.507Z,71.20
2019-02-04T20:45:35.320Z,71.10
2019-02-04T20:48:04.661Z,71.10
2019-02-04T20:50:38.806Z,71.30
2019-02-04T20:53:07.361Z,71.20
2019-02-04T20:55:36.101Z,71.40
2019-02-04T20:58:05.521Z,71.60
2019-02-04T21:00:35.144Z,71.20
2019-02-04T21:03:03.985Z,71.20
2019-02-04T21:05:32.909Z,71.20
2019-02-04T21:08:01.580Z,71.20
2019-02-04T21:10:30.759Z,71.10
2019-02-04T21:12:59.550Z,71.20
2019-02-04T21:15:28.146Z,71.30
2019-02-04T21:17:56.619Z,71.50
2019-02-04T21:20:27.222Z,71.50
2019-02-04T21:22:55.948Z,71.60
2019-02-04T21:25:24.865Z,71.70
2019-02-04T21:27:53.842Z,71.70
2019-02-04T21:30:30.860Z,71.70
2019-02-04T21:32:59.527Z,71.70
2019-02-04T21:35:28.085Z,71.60
2019-02-04T21:37:56.963Z,71.50
2019-02-04T21:40:26.034Z,71.60
2019-02-04T21:42:54.726Z,71.40
2019-02-04T21:45:24.382Z,71.50
2019-02-04T21:47:53.041Z,71.50
2019-02-04T21:50:23.612Z,71.30
2019-02-04T21:52:52.333Z,71.10
2019-02-04T21:55:22.035Z,71.10
2019-02-04T21:57:51.030Z,70.90
2019-02-04T22:00:22.099Z,70.60
2019-02-04T22:02:50.881Z,70.80
2019-02-04T22:05:22.453Z,70.80
2019-02-04T22:07:51.158Z,71.00
2019-02-04T22:10:22.438Z,71.00
2019-02-04T22:12:51.255Z,71.00
2019-02-04T22:15:20.061Z,70.80
2019-02-04T22:17:48.725Z,70.90
2019-02-04T22:20:18.854Z,70.90
2019-02-04T22:22:47.833Z,70.90
2019-02-04T22:25:19.701Z,70.50
2019-02-04T22:27:48.974Z,70.30
2019-02-04T22:30:20.843Z,70.40
2019-02-04T22:32:49.567Z,70.50
2019-02-04T22:35:18.362Z,70.30
2019-02-04T22:37:46.925Z,70.20
2019-02-04T22:40:23.283Z,70.40
2019-02-04T22:42:52.130Z,70.20
2019-02-04T22:45:20.765Z,70.40
2019-02-04T22:47:49.210Z,70.50
2019-02-04T22:50:23.270Z,70.70
2019-02-04T22:52:51.965Z,70.80
2019-02-04T22:55:31.788Z,70.80
2019-02-04T22:57:51.726Z,70.50
2019-02-04T23:00:31.006Z,70.50
2019-02-04T23:02:59.488Z,70.50
2019-02-04T23:05:27.901Z,70.50
2019-02-04T23:07:56.402Z,70.40
2019-02-04T23:10:24.842Z,70.30
2019-02-04T23:12:53.276Z,70.00
2019-02-04T23:15:21.723Z,69.70
2019-02-04T23:17:50.155Z,69.80
2019-02-04T23:20:18.568Z,70.00
2019-02-04T23:22:47.630Z,69.50
2019-02-04T23:25:16.114Z,69.40
2019-02-04T23:27:44.872Z,69.40
2019-02-04T23:30:16.666Z,69.40
2019-02-04T23:32:45.409Z,69.20
2019-02-04T23:35:14.163Z,69.40
2019-02-04T23:37:43.084Z,69.60
2019-02-04T23:40:13.013Z,69.70
2019-02-04T23:42:41.637Z,69.80
2019-02-04T23:45:11.624Z,69.80
2019-02-04T23:47:40.385Z,69.80
2019-02-04T23:50:11.881Z,69.60
2019-02-04T23:52:40.481Z,69.60
2019-02-04T23:55:13.069Z,69.30
2019-02-04T23:57:41.635Z,69.20
